Time;durP1;ratioP1;P1;durP2;ratioP2;P2;SDS_P1;SDS_P2;PMS_P1;PMS_P2;Temp;Humidity;BMP_temperature;BMP_pressure;BME280_temperature;BME280_humidity;BME280_pressure;Samples;Min_cycle;Max_cycle;Signal;HPM_P1;HPM_P2
2022/06/08 00:00:25;;;;;;;0.73;0.73;;;;;;;18.22;65.20;100539.47;5119190;28;20102;-81
2022/06/08 00:03:10;;;;;;;0.43;0.43;;;;;;;18.21;65.04;100545.75;5149576;28;20030;-81
2022/06/08 00:05:41;;;;;;;0.30;0.30;;;;;;;18.21;64.95;100542.22;5114182;28;20102;-81
2022/06/08 00:08:12;;;;;;;4.05;0.43;;;;;;;18.18;64.85;100545.94;5125820;28;20065;-81
2022/06/08 00:10:51;;;;;;;0.38;0.38;;;;;;;18.18;64.81;100545.94;5137148;28;20115;-81
2022/06/08 00:13:22;;;;;;;0.65;0.65;;;;;;;18.16;64.69;100545.16;5121327;28;20101;-81
2022/06/08 00:15:54;;;;;;;0.30;0.30;;;;;;;18.13;65.21;100542.72;5132790;28;20053;-81
2022/06/08 00:18:25;;;;;;;0.50;0.50;;;;;;;18.16;64.97;100537.19;5132652;28;20432;-82
2022/06/08 00:20:59;;;;;;;0.47;0.47;;;;;;;18.17;65.00;100538.91;5099706;28;20039;-81
2022/06/08 00:23:32;;;;;;;0.35;0.35;;;;;;;18.16;64.77;100531.06;5116870;28;20046;-81
2022/06/08 00:26:06;;;;;;;0.68;0.68;;;;;;;18.16;64.66;100531.91;5139692;28;20113;-81
2022/06/08 00:28:37;;;;;;;0.90;0.85;;;;;;;18.14;64.98;100538.25;5120954;28;20182;-81
2022/06/08 00:31:09;;;;;;;0.70;0.70;;;;;;;18.15;65.09;100527.53;5155365;28;20456;-82
2022/06/08 00:33:39;;;;;;;0.68;0.68;;;;;;;18.14;65.01;100528.47;5105905;28;20075;-81
2022/06/08 00:36:10;;;;;;;0.30;0.30;;;;;;;18.19;65.76;100522.88;5109853;28;20059;-82
2022/06/08 00:38:41;;;;;;;0.50;0.50;;;;;;;18.08;66.88;100524.41;5099975;28;20198;-82
2022/06/08 00:41:21;;;;;;;0.52;0.52;;;;;;;18.14;66.09;100525.81;5097745;28;20721;-82
2022/06/08 00:43:53;;;;;;;0.50;0.50;;;;;;;18.15;65.43;100524.88;5108811;28;20031;-81
2022/06/08 00:46:24;;;;;;;0.32;0.32;;;;;;;18.12;65.26;100519.78;5137366;28;20034;-81
2022/06/08 00:49:08;;;;;;;0.45;0.45;;;;;;;18.10;65.08;100513.69;5111079;28;20118;-81
2022/06/08 00:51:39;;;;;;;0.32;0.32;;;;;;;18.07;64.98;100508.56;5114717;28;20048;-81
2022/06/08 00:54:24;;;;;;;0.30;0.30;;;;;;;18.08;65.08;100507.63;5107703;29;20146;-82
2022/06/08 00:57:02;;;;;;;0.40;0.40;;;;;;;18.06;65.00;100509.50;5116244;28;20073;-82
2022/06/08 00:59:37;;;;;;;0.52;0.52;;;;;;;18.03;64.74;100501.75;5128286;28;20035;-81
2022/06/08 01:02:10;;;;;;;0.40;0.40;;;;;;;18.01;64.84;100487.72;5135335;28;20043;-82
2022/06/08 01:04:44;;;;;;;1.48;1.38;;;;;;;17.99;64.85;100490.47;5137107;28;20046;-81
2022/06/08 01:07:20;;;;;;;0.30;0.30;;;;;;;18.00;64.50;100493.97;5106394;28;20128;-81
2022/06/08 01:09:54;;;;;;;0.40;0.40;;;;;;;17.98;64.45;100490.56;5119540;28;20023;-82
2022/06/08 01:12:24;;;;;;;0.30;0.30;;;;;;;18.01;64.70;100495.69;5115563;28;20038;-81
2022/06/08 01:14:56;;;;;;;0.50;0.50;;;;;;;18.00;64.59;100493.97;5150169;28;20030;-81
2022/06/08 01:17:27;;;;;;;0.40;0.40;;;;;;;17.99;64.57;100486.94;5119016;28;20706;-81
2022/06/08 01:19:58;;;;;;;6.10;2.10;;;;;;;17.99;64.38;100484.28;5148993;28;20065;-81
2022/06/08 01:22:29;;;;;;;1.45;1.10;;;;;;;17.97;64.55;100486.22;5125484;28;20042;-81
2022/06/08 01:25:04;;;;;;;0.75;0.63;;;;;;;17.97;64.48;100483.56;5132832;28;20039;-81
2022/06/08 01:27:47;;;;;;;0.20;0.20;;;;;;;17.93;64.16;100475.75;5111912;28;20493;-81
2022/06/08 01:30:23;;;;;;;0.22;0.22;;;;;;;17.91;64.37;100469.66;5127769;28;20034;-81
2022/06/08 01:33:22;;;;;;;0.40;0.40;;;;;;;17.93;64.45;100477.56;5135633;28;20394;-81
2022/06/08 01:36:25;;;;;;;0.30;0.30;;;;;;;17.90;64.39;100473.28;5102634;28;20126;-81
2022/06/08 01:39:20;;;;;;;0.60;0.60;;;;;;;17.87;64.36;100468.16;5133214;28;20043;-82
2022/06/08 01:42:03;;;;;;;0.40;0.40;;;;;;;17.88;64.28;100458.41;5141962;28;20035;-82
2022/06/08 01:44:37;;;;;;;0.40;0.40;;;;;;;17.85;64.58;100456.78;5097058;28;20046;-81
2022/06/08 01:47:31;;;;;;;0.30;0.30;;;;;;;17.84;64.37;100457.72;5117615;28;20055;-82
2022/06/08 01:50:11;;;;;;;0.47;0.47;;;;;;;17.81;64.24;100452.59;5115712;28;20405;-81
2022/06/08 01:52:47;;;;;;;0.30;0.30;;;;;;;17.80;64.26;100450.94;5095983;28;20558;-81
2022/06/08 01:55:26;;;;;;;0.68;0.68;;;;;;;17.84;64.37;100446.28;5107570;28;20042;-82
2022/06/08 01:58:23;;;;;;;0.35;0.35;;;;;;;17.80;64.09;100442.97;5111926;28;20066;-82
2022/06/08 02:01:14;;;;;;;4.85;1.05;;;;;;;17.78;64.09;100437.72;5096860;28;20042;-82
2022/06/08 02:04:14;;;;;;;0.40;0.40;;;;;;;17.74;64.02;100435.34;5115935;28;20546;-82
2022/06/08 02:07:08;;;;;;;0.50;0.50;;;;;;;17.72;64.10;100426.66;5093992;28;20582;-82
2022/06/08 02:09:48;;;;;;;0.55;0.55;;;;;;;17.71;63.95;100423.13;5116477;28;20031;-81
2022/06/08 02:12:19;;;;;;;2.13;1.00;;;;;;;17.71;64.09;100425.78;5103730;28;20040;-81
2022/06/08 02:14:58;;;;;;;0.30;0.30;;;;;;;17.71;64.16;100424.97;5116652;28;20089;-81
2022/06/08 02:17:37;;;;;;;0.38;0.38;;;;;;;17.66;64.20;100427.03;5128639;28;20066;-80
2022/06/08 02:20:12;;;;;;;0.30;0.30;;;;;;;17.65;64.09;100417.34;5128142;28;20105;-81
2022/06/08 02:23:10;;;;;;;0.88;0.88;;;;;;;17.63;63.94;100422.75;5125199;28;21295;-81
2022/06/08 02:25:51;;;;;;;0.40;0.40;;;;;;;17.59;63.94;100413.31;5133941;28;20047;-81
2022/06/08 02:28:29;;;;;;;0.77;0.77;;;;;;;17.57;63.72;100410.72;5116691;28;20502;-81
2022/06/08 02:31:18;;;;;;;0.57;0.57;;;;;;;17.55;64.03;100402.03;5117303;28;20053;-80
2022/06/08 02:37:15;;;;;;;0.60;0.60;;;;;;;17.45;64.16;100395.56;5125862;28;20058;-81
2022/06/08 02:39:58;;;;;;;0.40;0.40;;;;;;;17.40;64.04;100389.69;5114689;28;20109;-81
2022/06/08 02:42:43;;;;;;;0.40;0.40;;;;;;;17.35;64.04;100386.47;5113747;28;20130;-81
2022/06/08 02:45:27;;;;;;;0.30;0.30;;;;;;;17.34;64.13;100384.75;5100813;28;20142;-81
2022/06/08 02:48:02;;;;;;;0.60;0.60;;;;;;;17.32;63.91;100392.81;5095888;28;20050;-81
2022/06/08 02:50:33;;;;;;;2.05;0.82;;;;;;;17.29;63.96;100391.22;5116072;28;20063;-81
2022/06/08 02:53:16;;;;;;;0.50;0.50;;;;;;;17.28;63.92;100384.19;5139853;28;20090;-81
2022/06/08 02:56:10;;;;;;;0.30;0.30;;;;;;;17.23;63.63;100386.25;5139372;28;20054;-81
2022/06/08 02:58:53;;;;;;;0.30;0.30;;;;;;;17.22;64.03;100381.94;5110999;28;20455;-80
2022/06/08 03:01:38;;;;;;;0.30;0.30;;;;;;;17.20;63.65;100382.94;5110127;29;20035;-81
2022/06/08 03:04:19;;;;;;;0.30;0.30;;;;;;;17.16;63.99;100382.28;5116420;28;20051;-81
2022/06/08 03:06:58;;;;;;;0.50;0.50;;;;;;;17.13;63.82;100371.88;5135986;28;20050;-81
2022/06/08 03:09:31;;;;;;;0.22;0.22;;;;;;;17.09;63.70;100380.94;5100955;29;20199;-81
2022/06/08 03:12:12;;;;;;;0.50;0.50;;;;;;;17.09;63.60;100371.22;5130882;28;20292;-81
2022/06/08 03:14:47;;;;;;;0.40;0.40;;;;;;;17.07;63.62;100367.78;5097859;28;20103;-81
2022/06/08 03:17:27;;;;;;;0.55;0.55;;;;;;;17.02;63.80;100359.28;5102107;29;20054;-81
2022/06/08 03:19:59;;;;;;;0.47;0.47;;;;;;;17.02;63.72;100369.00;5123476;28;20694;-82
2022/06/08 03:22:30;;;;;;;0.88;0.88;;;;;;;16.95;63.77;100369.38;5135644;28;20043;-81
2022/06/08 03:25:02;;;;;;;0.40;0.40;;;;;;;16.98;63.75;100382.44;5135001;28;20091;-81
2022/06/08 03:27:32;;;;;;;0.20;0.20;;;;;;;16.96;63.75;100373.72;5125810;28;20099;-81
2022/06/08 03:30:06;;;;;;;1.98;0.50;;;;;;;16.95;63.64;100379.97;5122180;28;20061;-81
2022/06/08 03:32:38;;;;;;;0.63;0.63;;;;;;;16.90;63.58;100381.16;5141194;28;20284;-83
2022/06/08 03:35:12;;;;;;;0.20;0.20;;;;;;;16.89;63.74;100382.97;5133481;28;20031;-82
2022/06/08 03:37:43;;;;;;;0.30;0.30;;;;;;;16.85;63.65;100378.78;5111563;28;20020;-81
2022/06/08 03:40:13;;;;;;;0.25;0.25;;;;;;;16.82;63.73;100373.66;5135383;28;20484;-80
2022/06/08 03:42:44;;;;;;;0.20;0.20;;;;;;;16.81;63.64;100369.31;5134495;28;20582;-80
2022/06/08 03:45:15;;;;;;;0.65;0.65;;;;;;;16.81;63.77;100371.97;5119234;28;20023;-81
2022/06/08 03:47:50;;;;;;;0.40;0.40;;;;;;;16.78;63.97;100377.44;5108080;28;20032;-81
2022/06/08 03:50:28;;;;;;;0.50;0.50;;;;;;;16.77;63.86;100371.28;5095225;28;20109;-81
2022/06/08 03:53:04;;;;;;;0.30;0.30;;;;;;;16.78;63.57;100377.44;5105310;28;20546;-80
2022/06/08 03:55:36;;;;;;;0.20;0.20;;;;;;;16.73;63.83;100368.91;5152015;28;20117;-80
2022/06/08 03:58:09;;;;;;;0.20;0.20;;;;;;;16.76;63.78;100368.72;5101530;28;20038;-80
2022/06/08 04:00:41;;;;;;;1.02;0.90;;;;;;;16.72;64.01;100361.91;5098410;28;20050;-80
2022/06/08 04:03:12;;;;;;;0.20;0.20;;;;;;;16.71;63.99;100362.84;5142158;28;20392;-81
2022/06/08 04:05:42;;;;;;;0.50;0.50;;;;;;;16.69;63.71;100373.53;5108446;28;20044;-81
2022/06/08 04:08:17;;;;;;;0.50;0.50;;;;;;;16.69;64.05;100378.84;5114904;28;20037;-81
2022/06/08 04:10:50;;;;;;;0.30;0.30;;;;;;;16.68;63.78;100372.66;5094936;28;20043;-80
2022/06/08 04:13:20;;;;;;;;;;;;;;;16.70;64.07;100377.03;5115991;28;20082;-80
2022/06/08 04:15:51;;;;;;;0.60;0.60;;;;;;;16.68;64.09;100377.97;5115446;28;19954;-81
2022/06/08 04:18:23;;;;;;;0.32;0.32;;;;;;;16.71;64.30;100379.56;5129642;28;20035;-80
2022/06/08 04:20:56;;;;;;;0.28;0.28;;;;;;;16.68;63.85;100372.66;5098786;28;20459;-81
2022/06/08 04:23:31;;;;;;;0.77;0.77;;;;;;;16.69;64.26;100378.84;5103307;28;20042;-81
2022/06/08 04:26:13;;;;;;;0.40;0.40;;;;;;;16.71;64.24;100376.09;5145973;28;20067;-81
2022/06/08 04:28:45;;;;;;;10.02;1.00;;;;;;;16.71;64.29;100370.78;5124507;28;20035;-81
2022/06/08 04:31:16;;;;;;;0.50;0.50;;;;;;;16.72;64.31;100364.56;5110549;28;20399;-80
2022/06/08 04:33:53;;;;;;;0.30;0.30;;;;;;;16.75;64.42;100359.94;5117234;28;20622;-80
2022/06/08 04:36:23;;;;;;;0.28;0.28;;;;;;;16.78;64.47;100359.72;5112062;28;20209;-80
2022/06/08 04:38:54;;;;;;;1.02;0.63;;;;;;;16.79;64.35;100363.25;5113741;28;20126;-81
2022/06/08 04:41:28;;;;;;;0.35;0.35;;;;;;;16.80;64.37;100364.97;5108287;29;20750;-80
2022/06/08 04:43:58;;;;;;;0.55;0.55;;;;;;;16.79;64.64;100357.94;5114356;28;20102;-80
2022/06/08 04:46:30;;;;;;;0.50;0.50;;;;;;;16.80;64.71;100352.56;5117310;28;20047;-81
2022/06/08 04:49:00;;;;;;;0.45;0.45;;;;;;;16.83;64.45;100348.84;5110573;28;20031;-81
2022/06/08 04:51:33;;;;;;;0.30;0.30;;;;;;;16.85;64.66;100352.28;5114507;28;20031;-81
2022/06/08 04:54:08;;;;;;;5.57;0.70;;;;;;;16.89;64.97;100351.16;5106874;28;20112;-81
2022/06/08 04:56:38;;;;;;;0.30;0.30;;;;;;;16.93;64.77;100343.91;5098154;28;20055;-83
2022/06/08 04:59:10;;;;;;;0.40;0.40;;;;;;;16.94;64.83;100341.16;5100304;28;20047;-83
2022/06/08 05:01:43;;;;;;;0.30;0.30;;;;;;;16.98;64.74;100342.66;5135343;28;20039;-84
2022/06/08 05:04:13;;;;;;;0.30;0.30;;;;;;;17.02;65.05;100339.84;5124589;28;20027;-83
2022/06/08 05:06:45;;;;;;;0.30;0.30;;;;;;;17.04;65.11;100332.66;5107210;28;20047;-84
2022/06/08 05:09:16;;;;;;;0.77;0.77;;;;;;;17.05;65.14;100329.91;5140253;28;20022;-83
2022/06/08 05:11:47;;;;;;;0.63;0.32;;;;;;;17.10;65.14;100332.28;5119453;28;20148;-83
2022/06/08 05:14:18;;;;;;;0.30;0.30;;;;;;;17.15;65.49;100327.53;5139898;28;20035;-85
2022/06/08 05:16:48;;;;;;;0.30;0.30;;;;;;;17.24;65.90;100326.97;5125515;28;20042;-84
2022/06/08 05:19:19;;;;;;;0.38;0.38;;;;;;;17.17;65.59;100323.00;5104053;28;20146;-85
2022/06/08 05:21:50;;;;;;;0.43;0.43;;;;;;;17.25;65.66;100312.78;5123382;28;20054;-84
2022/06/08 05:24:23;;;;;;;0.20;0.20;;;;;;;17.30;65.17;100316.03;5143927;28;20043;-84
2022/06/08 05:26:54;;;;;;;1.05;0.98;;;;;;;17.31;66.60;100309.75;5110538;28;20039;-82
2022/06/08 05:29:28;;;;;;;0.30;0.30;;;;;;;17.35;65.97;100306.91;5118594;28;20130;-83
2022/06/08 05:31:59;;;;;;;0.30;0.30;;;;;;;17.41;66.17;100317.13;5138518;28;20038;-83
2022/06/08 05:34:29;;;;;;;1.85;1.58;;;;;;;17.41;65.59;100309.19;5131321;28;20031;-83
2022/06/08 05:37:00;;;;;;;0.20;0.20;;;;;;;17.45;65.61;100308.06;5143139;28;20027;-84
2022/06/08 05:39:31;;;;;;;0.20;0.20;;;;;;;17.48;65.38;100299.88;5137594;28;20050;-85
2022/06/08 05:42:10;;;;;;;0.40;0.40;;;;;;;17.53;65.11;100294.28;5125577;28;20639;-84
2022/06/08 05:44:40;;;;;;;0.40;0.40;;;;;;;17.55;65.99;100287.97;5123211;28;20343;-85
2022/06/08 05:47:12;;;;;;;0.77;0.77;;;;;;;17.58;65.17;100271.84;5120732;28;20039;-83
2022/06/08 05:49:46;;;;;;;0.30;0.30;;;;;;;17.62;65.46;100275.16;5143005;28;20340;-84
2022/06/08 05:52:17;;;;;;;0.22;0.22;;;;;;;17.58;67.70;100271.00;5129320;28;20035;-84
2022/06/08 05:54:48;;;;;;;0.20;0.20;;;;;;;17.66;65.60;100266.06;5121628;28;20106;-83
2022/06/08 05:57:19;;;;;;;0.20;0.20;;;;;;;17.70;65.37;100264.06;5107045;28;20046;-83
2022/06/08 05:59:50;;;;;;;0.30;0.30;;;;;;;17.74;65.47;100260.25;5145153;28;20273;-85
2022/06/08 06:02:20;;;;;;;0.30;0.30;;;;;;;17.80;65.26;100272.28;5127711;28;20034;-84
2022/06/08 06:04:51;;;;;;;0.20;0.20;;;;;;;17.81;65.30;100261.53;5128288;28;20027;-84
2022/06/08 06:07:22;;;;;;;0.20;0.20;;;;;;;17.87;65.03;100270.91;5119202;28;20129;-84
2022/06/08 06:09:52;;;;;;;0.30;0.30;;;;;;;17.87;65.35;100274.44;5124192;28;20729;-84
2022/06/08 06:12:23;;;;;;;0.20;0.20;;;;;;;17.94;65.27;100265.13;5133717;28;20282;-83
2022/06/08 06:14:54;;;;;;;0.50;0.45;;;;;;;17.96;65.27;100274.81;5128541;28;20034;-84
2022/06/08 06:17:24;;;;;;;0.35;0.35;;;;;;;18.01;65.37;100278.00;5100899;28;20615;-84
2022/06/08 06:19:56;;;;;;;0.65;0.65;;;;;;;18.03;65.25;100276.13;5147379;28;20077;-83
2022/06/08 06:22:33;;;;;;;0.20;0.20;;;;;;;18.05;65.26;100274.22;5127569;28;20477;-84
2022/06/08 06:25:09;;;;;;;0.28;0.28;;;;;;;18.14;64.90;100270.09;5148358;28;20097;-84
2022/06/08 06:27:40;;;;;;;0.38;0.38;;;;;;;18.15;65.17;100272.63;5143289;28;20086;-84
2022/06/08 06:30:15;;;;;;;0.57;0.57;;;;;;;18.17;65.21;100268.09;5131055;28;20650;-85
2022/06/08 06:32:48;;;;;;;0.63;0.50;;;;;;;18.18;65.50;100264.47;5135949;28;20039;-83
2022/06/08 06:35:25;;;;;;;0.30;0.30;;;;;;;18.18;66.23;100261.84;5130045;28;20031;-84
2022/06/08 06:37:59;;;;;;;1.38;1.27;;;;;;;18.25;65.33;100271.09;5139784;28;20317;-84
2022/06/08 06:40:33;;;;;;;0.20;0.20;;;;;;;18.28;65.40;100264.72;5112309;28;20061;-85
2022/06/08 06:43:06;;;;;;;0.20;0.20;;;;;;;18.29;65.59;100261.09;5110918;28;20038;-85
2022/06/08 06:45:37;;;;;;;0.20;0.20;;;;;;;18.37;65.91;100257.94;5123011;28;20048;-85
2022/06/08 06:48:08;;;;;;;5.05;0.95;;;;;;;18.38;66.53;100264.97;5135833;28;20057;-85
2022/06/08 06:50:38;;;;;;;0.28;0.28;;;;;;;18.43;65.54;100262.84;5123084;28;20039;-83
2022/06/08 06:53:13;;;;;;;4.90;1.45;;;;;;;18.48;65.89;100254.56;5128327;28;20057;-84
2022/06/08 06:55:44;;;;;;;0.57;0.57;;;;;;;18.45;66.82;100258.28;5141364;28;20062;-83
2022/06/08 06:58:17;;;;;;;;;;;;;;;18.49;66.09;100253.63;5140577;28;20031;-84
2022/06/08 07:00:49;;;;;;;0.40;0.40;;;;;;;18.51;66.64;100238.44;5143656;28;19914;-85
2022/06/08 07:03:21;;;;;;;0.30;0.30;;;;;;;18.62;65.99;100249.16;5118000;29;20504;-84
2022/06/08 07:05:51;;;;;;;0.20;0.20;;;;;;;18.64;65.75;100247.25;5127338;28;20435;-84
2022/06/08 07:08:23;;;;;;;0.30;0.30;;;;;;;18.67;65.86;100251.50;5156447;28;20050;-85
2022/06/08 07:13:43;;;;;;;0.35;0.35;;;;;;;18.71;65.74;100245.03;5142688;28;20053;-84
2022/06/08 07:16:14;;;;;;;0.20;0.20;;;;;;;18.67;66.02;100241.75;5133731;28;20035;-85
2022/06/08 07:18:45;;;;;;;0.68;0.68;;;;;;;18.75;66.25;100245.66;5103771;28;20495;-84
2022/06/08 07:21:16;;;;;;;0.30;0.30;;;;;;;18.79;65.39;100232.06;5128719;28;20054;-84
2022/06/08 07:23:47;;;;;;;0.40;0.40;;;;;;;18.77;65.68;100233.09;5126149;28;20102;-84
2022/06/08 07:26:18;;;;;;;0.30;0.30;;;;;;;18.80;65.54;100232.91;5132524;28;20106;-83
2022/06/08 07:28:52;;;;;;;0.35;0.35;;;;;;;18.83;65.53;100238.84;5121991;28;20045;-84
2022/06/08 07:31:23;;;;;;;0.20;0.20;;;;;;;18.70;66.48;100233.53;5139636;28;20652;-83
2022/06/08 07:33:54;;;;;;;0.20;0.20;;;;;;;18.77;66.33;100233.97;5158724;28;20031;-82
2022/06/08 07:36:25;;;;;;;0.20;0.20;;;;;;;18.80;65.96;100233.75;5114618;28;20043;-81
2022/06/08 07:38:56;;;;;;;0.20;0.20;;;;;;;18.80;66.67;100228.41;5097844;28;20042;-83
2022/06/08 07:41:27;;;;;;;0.47;0.30;;;;;;;18.85;65.92;100231.63;5107482;28;20101;-83
2022/06/08 07:43:58;;;;;;;0.60;0.60;;;;;;;18.94;65.96;100222.19;5122312;28;20054;-82
2022/06/08 07:46:29;;;;;;;0.95;0.95;;;;;;;18.91;66.32;100224.16;5112546;28;20168;-82
2022/06/08 07:51:55;;;;;;;0.30;0.30;;;;;;;18.98;65.83;100221.03;5139012;28;20101;-83
2022/06/08 07:54:28;;;;;;;0.40;0.40;;;;;;;19.00;66.25;100227.09;5098606;28;20289;-84
2022/06/08 07:57:00;;;;;;;0.30;0.30;;;;;;;19.02;66.34;100217.16;5123589;28;20043;-83
2022/06/08 07:59:34;;;;;;;0.52;0.52;;;;;;;19.06;66.35;100216.97;5106338;28;20039;-84
2022/06/08 08:02:08;;;;;;;0.30;0.30;;;;;;;19.14;65.89;100217.28;5133989;28;20738;-83
2022/06/08 08:04:42;;;;;;;1.02;0.95;;;;;;;19.25;66.16;100211.19;5139636;28;20037;-83
2022/06/08 08:07:13;;;;;;;0.30;0.30;;;;;;;19.17;67.04;100212.59;5149206;28;20039;-82
2022/06/08 08:09:48;;;;;;;1.08;0.85;;;;;;;19.30;66.18;100209.91;5130167;28;20344;-84
2022/06/08 08:12:45;;;;;;;0.20;0.20;;;;;;;19.33;66.30;100214.13;5127792;28;20061;-82
2022/06/08 08:15:20;;;;;;;0.38;0.38;;;;;;;19.33;66.57;100214.13;5135376;28;20059;-82
2022/06/08 08:17:54;;;;;;;1.65;1.27;;;;;;;19.37;66.68;100215.63;5148681;28;20049;-82
2022/06/08 08:20:28;;;;;;;0.95;0.95;;;;;;;19.29;67.50;100204.69;5136545;28;20058;-80
2022/06/08 08:22:59;;;;;;;15.70;12.60;;;;;;;19.40;66.69;100210.06;5133088;28;20480;-81
2022/06/08 08:25:32;;;;;;;1.75;1.65;;;;;;;19.44;66.73;100195.59;5114578;28;20066;-81
2022/06/08 08:28:03;;;;;;;0.45;0.45;;;;;;;19.51;66.78;100190.66;5123139;28;20026;-81
2022/06/08 08:30:35;;;;;;;0.38;0.38;;;;;;;19.55;67.02;100196.59;5129848;28;20035;-81
2022/06/08 08:33:08;;;;;;;0.45;0.45;;;;;;;19.62;67.03;100190.72;5108824;28;20027;-81
2022/06/08 08:35:39;;;;;;;0.20;0.20;;;;;;;19.62;67.04;100188.06;5121929;28;20679;-81
2022/06/08 08:38:10;;;;;;;0.30;0.30;;;;;;;19.66;67.09;100186.03;5128241;28;20046;-81
2022/06/08 08:40:53;;;;;;;0.20;0.20;;;;;;;19.72;66.84;100188.22;5124826;28;20787;-81
2022/06/08 08:43:34;;;;;;;0.93;0.93;;;;;;;19.80;66.70;100185.84;5093164;28;20031;-81
2022/06/08 08:46:25;;;;;;;0.30;0.30;;;;;;;19.90;66.14;100170.09;5145508;28;20054;-81
2022/06/08 08:49:06;;;;;;;0.30;0.30;;;;;;;19.91;66.43;100171.78;5096747;28;20562;-82
2022/06/08 08:51:50;;;;;;;0.20;0.20;;;;;;;20.01;66.13;100166.63;5128324;28;20050;-80
2022/06/08 08:54:34;;;;;;;0.20;0.20;;;;;;;20.08;66.27;100162.50;5130774;28;20452;-80
2022/06/08 08:57:18;;;;;;;0.57;0.57;;;;;;;20.07;66.40;100171.47;5133726;28;20869;-81
2022/06/08 08:59:49;;;;;;;0.80;0.77;;;;;;;20.09;63.53;100163.34;5110080;28;20122;-81
2022/06/08 09:05:22;;;;;;;0.63;0.63;;;;;;;20.29;64.16;100168.00;5108163;28;20027;-80
2022/06/08 09:07:53;;;;;;;0.20;0.20;;;;;;;20.40;64.66;100155.69;5106832;28;20130;-80
2022/06/08 09:10:25;;;;;;;0.43;0.43;;;;;;;20.48;64.35;100157.75;5114183;28;20042;-80
2022/06/08 09:12:56;;;;;;;1.88;0.95;;;;;;;20.48;62.27;100161.28;5105839;28;20042;-80
2022/06/08 09:15:45;;;;;;;0.28;0.28;;;;;;;20.57;62.87;100160.56;5122774;28;20122;-80
2022/06/08 09:18:36;;;;;;;0.30;0.30;;;;;;;20.63;62.88;100156.53;5142491;28;20080;-81
2022/06/08 09:21:21;;;;;;;0.40;0.40;;;;;;;20.67;62.52;100150.00;5138886;28;20034;-80
2022/06/08 09:24:09;;;;;;;0.32;0.32;;;;;;;20.73;62.68;100146.06;5126546;28;20229;-81
2022/06/08 09:26:40;;;;;;;0.20;0.20;;;;;;;20.74;62.51;100151.25;5117667;28;20047;-80
2022/06/08 09:29:11;;;;;;;0.60;0.60;;;;;;;20.74;61.79;100156.59;5112261;28;20060;-81
2022/06/08 09:31:43;;;;;;;1.00;0.75;;;;;;;20.86;62.58;100144.09;5118163;28;20082;-81
2022/06/08 09:34:29;;;;;;;0.30;0.30;;;;;;;20.76;60.65;100145.78;5116175;28;20027;-82
2022/06/08 09:37:26;;;;;;;0.55;0.55;;;;;;;20.80;61.63;100138.38;5115208;28;20058;-82
2022/06/08 09:40:01;;;;;;;0.30;0.30;;;;;;;20.78;61.25;100137.69;5135452;28;20049;-81
2022/06/08 09:42:56;;;;;;;0.20;0.20;;;;;;;20.78;61.67;100137.69;5115289;28;20178;-81
2022/06/08 09:45:49;;;;;;;0.28;0.28;;;;;;;20.71;61.39;100135.47;5131142;28;20411;-81
2022/06/08 09:51:40;;;;;;;0.55;0.55;;;;;;;20.67;61.11;100130.47;5135058;28;20046;-80
2022/06/08 09:54:24;;;;;;;0.40;0.40;;;;;;;20.75;61.60;100128.97;5114138;28;20454;-79
2022/06/08 09:57:24;;;;;;;0.40;0.40;;;;;;;20.47;63.77;100135.59;5097951;28;21004;-79
2022/06/08 10:00:27;;;;;;;0.32;0.32;;;;;;;20.33;66.91;100141.16;5102679;28;20035;-79
2022/06/08 10:03:33;;;;;;;3.78;0.82;;;;;;;20.08;67.45;100151.84;5138732;28;20138;-79
2022/06/08 10:06:19;;;;;;;0.20;0.20;;;;;;;20.11;66.72;100153.44;5130769;28;20054;-79
2022/06/08 10:08:59;;;;;;;0.30;0.30;;;;;;;20.21;66.38;100157.09;5113259;28;20041;-80
2022/06/08 10:11:44;;;;;;;1.35;0.50;;;;;;;19.86;67.67;100160.63;5102897;28;20078;-81
2022/06/08 10:14:47;;;;;;;2.40;2.20;;;;;;;19.72;68.50;100166.09;5132890;28;20031;-81
2022/06/08 10:17:30;;;;;;;0.40;0.40;;;;;;;19.67;68.36;100153.97;5092373;28;20058;-80
2022/06/08 10:20:04;;;;;;;;;;;;;;;19.78;67.53;100155.00;5095602;28;20325;-81
2022/06/08 10:22:50;;;;;;;1.85;1.15;;;;;;;19.77;66.28;100159.47;5131148;28;19910;-81
2022/06/08 10:25:40;;;;;;;0.38;0.38;;;;;;;19.90;65.56;100153.25;5120386;28;20052;-81
2022/06/08 10:28:26;;;;;;;0.40;0.40;;;;;;;19.90;65.54;100145.25;5141363;28;20089;-81
2022/06/08 10:31:07;;;;;;;0.80;0.63;;;;;;;19.85;65.86;100142.94;5118297;28;20105;-81
2022/06/08 10:33:53;;;;;;;0.85;0.35;;;;;;;19.96;65.09;100136.81;5117387;28;20496;-82
2022/06/08 10:36:25;;;;;;;;;;;;;;;19.93;65.45;100139.72;5115317;28;20054;-81
2022/06/08 10:38:55;;;;;;;3.00;0.47;;;;;;;19.95;65.74;100137.78;5129825;28;19961;-81
2022/06/08 10:44:37;;;;;;;0.40;0.40;;;;;;;19.59;67.97;100139.56;5115411;28;20058;-82
2022/06/08 10:47:13;;;;;;;1.30;1.13;;;;;;;19.53;68.57;100140.03;5095486;28;20069;-82
2022/06/08 10:49:45;;;;;;;0.90;0.82;;;;;;;19.19;67.87;100144.19;5128860;28;20116;-82
2022/06/08 10:52:42;;;;;;;0.40;0.40;;;;;;;18.84;67.88;100144.88;5112066;28;20047;-82
2022/06/08 10:55:16;;;;;;;0.43;0.43;;;;;;;18.55;68.74;100150.41;5115260;28;20065;-82
2022/06/08 10:58:04;;;;;;;0.40;0.40;;;;;;;18.62;68.49;100139.38;5113752;28;20066;-82
2022/06/08 11:01:00;;;;;;;0.57;0.57;;;;;;;18.37;70.11;100146.41;5113475;28;20035;-82
2022/06/08 11:03:40;;;;;;;0.30;0.30;;;;;;;18.43;70.21;100148.63;5109769;28;20031;-82
2022/06/08 11:06:45;;;;;;;1.20;1.10;;;;;;;18.39;71.75;100155.09;5131083;28;20058;-81
2022/06/08 11:09:48;;;;;;;0.30;0.30;;;;;;;18.37;72.60;100165.84;5147725;28;20117;-82
2022/06/08 11:12:30;;;;;;;1.20;1.10;;;;;;;18.29;71.48;100159.38;5082735;28;20039;-82
2022/06/08 11:15:10;;;;;;;0.30;0.30;;;;;;;18.43;71.30;100164.56;5111848;28;20110;-81
2022/06/08 11:17:49;;;;;;;0.40;0.40;;;;;;;18.41;70.00;100158.50;5116849;28;20035;-82
2022/06/08 11:20:23;;;;;;;0.28;0.28;;;;;;;18.39;70.80;100165.72;5116885;28;20058;-81
2022/06/08 11:23:07;;;;;;;0.40;0.40;;;;;;;18.39;70.30;100157.75;5143594;28;20059;-82
2022/06/08 11:26:25;;;;;;;0.63;0.55;;;;;;;18.45;70.25;100157.34;5125784;28;20121;-81
2022/06/08 11:29:18;;;;;;;0.40;0.40;;;;;;;18.52;69.65;100150.66;5093778;28;20031;-81
2022/06/08 11:31:50;;;;;;;0.30;0.30;;;;;;;18.52;69.68;100158.63;5137654;28;20111;-82
2022/06/08 11:34:21;;;;;;;0.65;0.52;;;;;;;18.14;70.48;100159.44;5117535;28;20260;-82
2022/06/08 11:37:11;;;;;;;0.32;0.32;;;;;;;18.36;69.96;100144.69;5131645;28;20046;-82
2022/06/08 11:40:06;;;;;;;2.00;0.82;;;;;;;18.23;71.01;100150.84;5123304;28;20051;-84
2022/06/08 11:43:14;;;;;;;0.50;0.50;;;;;;;18.36;69.60;100145.53;5119437;28;20050;-84
2022/06/08 11:45:54;;;;;;;0.68;0.68;;;;;;;18.41;69.96;100153.19;5116265;28;20066;-83
2022/06/08 11:48:43;;;;;;;2.60;1.08;;;;;;;18.54;69.40;100145.22;5102249;28;20156;-83
2022/06/08 11:51:35;;;;;;;1.65;1.02;;;;;;;18.63;69.08;100151.72;5125947;28;20122;-84
2022/06/08 11:54:18;;;;;;;0.50;0.50;;;;;;;18.62;69.75;100147.34;5130258;28;20035;-82
2022/06/08 11:57:17;;;;;;;0.30;0.30;;;;;;;18.66;69.29;100146.16;5097769;28;20057;-83
2022/06/08 11:59:51;;;;;;;0.40;0.40;;;;;;;18.65;71.17;100141.81;5130834;28;20062;-83
2022/06/08 12:02:33;;;;;;;0.20;0.20;;;;;;;18.58;70.36;100143.19;5146353;28;20399;-82
2022/06/08 12:05:07;;;;;;;0.30;0.30;;;;;;;18.73;70.15;100142.13;5102318;28;20024;-83
2022/06/08 12:07:50;;;;;;;0.20;0.20;;;;;;;18.75;70.08;100142.88;5131315;28;20491;-83
2022/06/08 12:10:25;;;;;;;0.30;0.30;;;;;;;18.66;70.58;100136.41;5111503;28;20113;-83
2022/06/08 12:12:58;;;;;;;0.20;0.20;;;;;;;18.80;70.48;100131.91;5126438;28;20032;-82
2022/06/08 12:15:43;;;;;;;0.75;0.75;;;;;;;18.81;70.23;100134.44;5117733;28;20043;-85
2022/06/08 12:18:36;;;;;;;0.57;0.57;;;;;;;18.81;70.73;100130.97;5112095;28;20027;-83
2022/06/08 12:21:19;;;;;;;0.70;0.70;;;;;;;18.85;71.13;100124.44;5128797;28;20091;-83
2022/06/08 12:24:05;;;;;;;0.20;0.20;;;;;;;18.87;71.06;100134.03;5094098;28;20039;-83
2022/06/08 12:26:45;;;;;;;9.13;1.42;;;;;;;18.98;69.54;100127.09;5111602;28;20074;-84
2022/06/08 12:29:30;;;;;;;1.08;1.05;;;;;;;18.97;70.52;100128.94;5131589;28;20026;-85
2022/06/08 12:32:24;;;;;;;0.20;0.20;;;;;;;19.03;70.40;100127.66;5125344;28;20474;-84